• Join FlightAware (Why Join?)
  • Login
  • US Flag 
10:51PM EST


 

Airport Tracker/Info


-or-


 

Live Flight TrackerFlight Track Log ✈ EJA929 ✈ 24-Mar-2014 ✈ KSLC - KSUN

Flight Track Log - Related Links

Times and Time Zones

All times are in EDT time to prevent confusion due to time zone crossing. See the EJA929 flight status page for this flight to view local times or setup timezone preferences in your user account.

Time Position Orientation Groundspeed Altitude Reporting Facility
EDT Latitude Longitude Course Direction KTS MPH feet Rate Location/Type
02:00PM 40.7492 -112.0383 257° West 234 269 8,300  Level Salt Lake Center
02:01PM 40.7489 -112.0614 269° West 240 276 9,000 1,320 Climbing Salt Lake Center
02:02PM 40.8044 -112.1419 312° West 317 365 10,100 1,680 Climbing Salt Lake Center
02:03PM 40.8828 -112.2203 323° Northwest 347 399 12,500 2,400 Climbing Salt Lake Center
02:04PM 40.9628 -112.3008 323° Northwest 356 410 15,100 2,280 Climbing Salt Lake Center
02:05PM 41.0431 -112.3811 323° Northwest 359 413 17,300 1,860 Climbing Salt Lake Center
02:06PM 41.1244 -112.4636 323° Northwest 364 419 19,000 1,260 Climbing Salt Lake Center
02:07PM 41.2111 -112.5517 323° Northwest 392 451 20,000 480 Climbing Salt Lake Center
02:08PM 41.3158 -112.6722 319° Northwest 415 478 20,000  Level Salt Lake Center
02:09PM 41.3947 -112.7894 312° West 423 487 20,000  Level Salt Lake Center
02:10PM 41.4714 -112.9069 311° West 422 486 20,000  Level Salt Lake Center
02:11PM 41.5450 -113.0225 310° West 414 476 20,000  Level Salt Lake Center
02:12PM 41.6206 -113.1367 312° West 413 475 20,000  Level Salt Lake Center
02:13PM 41.6972 -113.2525 312° West 413 475 20,000  Level Salt Lake Center
02:14PM 41.7872 -113.3908 311° West 413 475 20,000  Level Salt Lake Center
02:15PM 41.8622 -113.5111 310° West 415 478 20,000  Level Salt Lake Center
02:16PM 41.9406 -113.6306 311° West 423 487 20,000  Level Salt Lake Center
02:17PM 42.0153 -113.7494 310° West 420 483 20,000  Level Salt Lake Center
02:18PM 42.0908 -113.8692 310° West 418 481 20,000  Level Salt Lake Center
02:19PM 42.1672 -113.9878 311° West 418 481 20,000  Level Salt Lake Center
02:20PM 42.2783 -114.0992 323° Northwest 423 487 20,000  Level Salt Lake Center
02:21PM 42.3936 -114.1197 352° North 426 490 20,000 -780 Level Salt Lake Center
02:22PM 42.5131 -114.1358 354° North 420 483 18,500 -1,380 Descending Salt Lake Center
02:23PM 42.6344 -114.1519 354° North 418 481 17,200 -1,920 Descending Salt Lake Center
02:24PM 42.7483 -114.1664 355° North 400 460 14,600 -2,580 Descending Salt Lake Center
02:25PM 42.8611 -114.1825 354° North 394 453 12,000 -1,800 Descending Salt Lake Center
02:26PM 42.9597 -114.1942 355° North 378 435 11,000 -540 Descending Salt Lake Center
02:28PM 43.0519 -114.2064 354° North 328 377 11,000  Level Salt Lake Center
02:29PM 43.1475 -114.2194 354° North 328 377 11,000 -720 Level Salt Lake Center
02:30PM 43.2203 -114.1911 16° North 310 357 9,600 -1,380 Descending Salt Lake Center
02:32PM 43.4078 -114.2612 345° North  Level FlightAware Approximate
02:39PM 43.5000 -114.2833 North  Level FlightAware Approximate
02:40PM 43.5038 -114.2956 North  Level Estimated
02:41PM 43.5038 -114.2956 North  Level Estimated